createdAt,value
2018-09-26T00:00:49.786Z,5.19
2018-09-26T00:01:58.570Z,5.20
2018-09-26T00:03:10.495Z,5.19
2018-09-26T00:04:21.595Z,5.18
2018-09-26T00:05:26.803Z,5.12
2018-09-26T00:06:31.210Z,5.10
2018-09-26T00:07:35.612Z,5.10
2018-09-26T00:08:41.881Z,5.11
2018-09-26T00:09:47.724Z,5.16
2018-09-26T00:10:52.431Z,5.20
2018-09-26T00:11:57.000Z,5.22
2018-09-26T00:13:01.526Z,5.08
2018-09-26T00:14:05.997Z,4.98
2018-09-26T00:15:10.414Z,4.84
2018-09-26T00:16:16.566Z,4.81
2018-09-26T00:17:20.962Z,4.73
2018-09-26T00:18:25.419Z,4.67
2018-09-26T00:19:29.837Z,4.51
2018-09-26T00:20:34.260Z,4.47
2018-09-26T00:21:38.679Z,4.47
2018-09-26T00:22:43.469Z,4.50
2018-09-26T00:23:47.951Z,4.53
2018-09-26T00:24:52.357Z,4.59
2018-09-26T00:25:56.881Z,4.52
2018-09-26T00:27:01.550Z,4.39
2018-09-26T00:28:05.972Z,4.20
2018-09-26T00:29:11.321Z,4.18
2018-09-26T00:30:15.775Z,4.23
2018-09-26T00:31:20.240Z,4.26
2018-09-26T00:32:24.672Z,4.29
2018-09-26T00:33:29.129Z,4.28
2018-09-26T00:34:33.848Z,4.28
2018-09-26T00:35:38.618Z,4.30
2018-09-26T00:36:43.021Z,4.30
2018-09-26T00:37:47.415Z,4.28
2018-09-26T00:38:51.829Z,4.23
2018-09-26T00:39:56.292Z,4.19
2018-09-26T00:41:01.009Z,4.18
2018-09-26T00:42:05.429Z,4.11
2018-09-26T00:43:09.864Z,4.04
2018-09-26T00:44:14.289Z,3.88
2018-09-26T00:45:18.718Z,3.82
2018-09-26T00:46:23.151Z,3.86
2018-09-26T00:47:27.836Z,3.91
2018-09-26T00:48:32.225Z,3.91
2018-09-26T00:49:36.633Z,3.93
2018-09-26T00:50:41.085Z,3.95
2018-09-26T00:51:45.510Z,3.97
2018-09-26T00:52:49.959Z,3.93
2018-09-26T00:53:54.766Z,3.94
2018-09-26T00:54:59.592Z,3.97
2018-09-26T00:56:05.029Z,3.94
2018-09-26T00:57:09.491Z,3.93
2018-09-26T00:58:13.932Z,3.96
2018-09-26T00:59:18.443Z,3.97
2018-09-26T01:00:23.171Z,3.98
2018-09-26T01:01:27.624Z,3.95
2018-09-26T01:02:32.885Z,3.96
2018-09-26T01:03:37.336Z,3.96
2018-09-26T01:04:41.749Z,3.93
2018-09-26T01:05:46.209Z,3.86
2018-09-26T01:06:50.929Z,3.85
2018-09-26T01:07:55.366Z,3.85
2018-09-26T01:08:59.846Z,3.79
2018-09-26T01:10:04.555Z,3.80
2018-09-26T01:11:08.969Z,3.79
2018-09-26T01:12:13.504Z,3.83
2018-09-26T01:13:18.288Z,3.84
2018-09-26T01:14:22.945Z,3.85
2018-09-26T01:15:27.336Z,3.81
2018-09-26T01:16:31.783Z,3.70
2018-09-26T01:17:36.224Z,3.64
2018-09-26T01:18:40.708Z,3.67
2018-09-26T01:19:45.455Z,3.71
2018-09-26T01:20:50.610Z,3.71
2018-09-26T01:21:55.039Z,3.76
2018-09-26T01:22:59.519Z,3.78
2018-09-26T01:24:03.925Z,3.77
2018-09-26T01:25:08.441Z,3.69
2018-09-26T01:26:13.166Z,3.65
2018-09-26T01:27:17.611Z,3.59
2018-09-26T01:28:22.006Z,3.56
2018-09-26T01:29:26.421Z,3.58
2018-09-26T01:30:30.854Z,3.64
2018-09-26T01:31:35.345Z,3.64
2018-09-26T01:32:40.058Z,3.70
2018-09-26T01:33:44.583Z,3.68
2018-09-26T01:34:49.027Z,3.74
2018-09-26T01:35:53.457Z,3.69
2018-09-26T01:36:57.993Z,3.61
2018-09-26T01:38:02.500Z,3.55
2018-09-26T01:39:07.912Z,3.48
2018-09-26T01:40:12.534Z,3.42
2018-09-26T01:41:17.056Z,3.44
2018-09-26T01:42:21.552Z,3.53
2018-09-26T01:43:25.981Z,3.60
2018-09-26T01:44:30.408Z,3.67
2018-09-26T01:45:35.137Z,3.67
2018-09-26T01:46:39.585Z,3.63
2018-09-26T01:47:44.013Z,3.69
2018-09-26T01:48:48.443Z,3.73
2018-09-26T01:49:53.010Z,3.78
2018-09-26T01:50:57.436Z,3.84
2018-09-26T01:52:01.884Z,3.88
2018-09-26T01:53:06.576Z,3.91
2018-09-26T01:54:11.084Z,3.96
2018-09-26T01:55:15.645Z,4.01
2018-09-26T01:56:20.094Z,4.04
2018-09-26T01:57:24.563Z,4.02
2018-09-26T01:58:30.344Z,4.04
2018-09-26T01:59:35.486Z,4.04
2018-09-26T02:00:39.904Z,4.06
2018-09-26T02:01:44.312Z,4.10
2018-09-26T02:02:49.521Z,4.13
2018-09-26T02:03:54.540Z,4.07
2018-09-26T02:04:58.959Z,4.10
2018-09-26T02:06:03.469Z,4.12
2018-09-26T02:07:08.910Z,4.13
2018-09-26T02:08:13.303Z,4.17
2018-09-26T02:09:17.718Z,4.18
2018-09-26T02:10:22.420Z,4.19
2018-09-26T02:11:26.856Z,4.07
2018-09-26T02:12:31.333Z,4.02
2018-09-26T02:13:35.791Z,4.00
2018-09-26T02:14:40.246Z,4.00
2018-09-26T02:15:44.698Z,4.00
2018-09-26T02:16:49.101Z,3.98
2018-09-26T02:17:53.544Z,3.98
2018-09-26T02:18:57.977Z,3.97
2018-09-26T02:20:02.453Z,3.96
2018-09-26T02:21:06.863Z,3.99
2018-09-26T02:22:12.191Z,4.02
2018-09-26T02:23:16.640Z,4.03
2018-09-26T02:24:22.068Z,3.95
2018-09-26T02:25:26.473Z,3.91
2018-09-26T02:26:30.888Z,3.91
2018-09-26T02:27:35.970Z,3.79
2018-09-26T02:28:40.705Z,3.77
2018-09-26T02:29:45.101Z,3.75
2018-09-26T02:30:49.562Z,3.67
2018-09-26T02:31:54.571Z,3.64
2018-09-26T02:32:59.013Z,3.65
2018-09-26T02:34:03.533Z,3.68
2018-09-26T02:35:08.386Z,3.73
2018-09-26T02:36:12.858Z,3.78
2018-09-26T02:37:17.293Z,3.81
2018-09-26T02:38:21.673Z,3.84
2018-09-26T02:39:26.068Z,3.81
2018-09-26T02:40:30.475Z,3.79
2018-09-26T02:41:35.244Z,3.76
2018-09-26T02:42:39.678Z,3.67
2018-09-26T02:43:44.137Z,3.61
2018-09-26T02:44:49.544Z,3.54
2018-09-26T02:45:53.940Z,3.55
2018-09-26T02:46:58.351Z,3.61
2018-09-26T02:48:03.096Z,3.62
2018-09-26T02:49:07.968Z,3.66
2018-09-26T02:50:12.435Z,3.70
2018-09-26T02:51:16.867Z,3.74
2018-09-26T02:52:21.260Z,3.65
2018-09-26T02:53:25.659Z,3.61
2018-09-26T02:54:30.353Z,3.46
2018-09-26T02:55:36.272Z,3.40
2018-09-26T02:56:40.722Z,3.44
2018-09-26T02:57:45.155Z,3.51
2018-09-26T02:58:50.235Z,3.55
2018-09-26T02:59:54.630Z,3.58
2018-09-26T03:01:02.510Z,3.56
2018-09-26T03:02:07.045Z,3.57
2018-09-26T03:03:11.502Z,3.59
2018-09-26T03:04:15.945Z,3.59
2018-09-26T03:05:20.505Z,3.61
2018-09-26T03:06:24.937Z,3.59
2018-09-26T03:07:29.693Z,3.44
2018-09-26T03:08:34.099Z,3.28
2018-09-26T03:09:38.545Z,3.16
2018-09-26T03:10:43.011Z,3.18
2018-09-26T03:11:47.449Z,3.22
2018-09-26T03:12:51.872Z,3.30
2018-09-26T03:13:56.586Z,3.34
2018-09-26T03:15:01.923Z,3.41
2018-09-26T03:16:06.437Z,3.48
2018-09-26T03:17:10.862Z,3.52
2018-09-26T03:18:15.338Z,3.52
2018-09-26T03:19:19.739Z,3.47
2018-09-26T03:20:24.445Z,3.47
2018-09-26T03:21:28.847Z,3.47
2018-09-26T03:22:33.264Z,3.49
2018-09-26T03:23:37.664Z,3.55
2018-09-26T03:24:42.075Z,3.60
2018-09-26T03:25:46.516Z,3.66
2018-09-26T03:26:51.526Z,3.68
2018-09-26T03:27:55.956Z,3.71
2018-09-26T03:29:00.423Z,3.68
2018-09-26T03:30:04.884Z,3.64
2018-09-26T03:31:09.333Z,3.62
2018-09-26T03:32:13.828Z,3.55
2018-09-26T03:33:18.761Z,3.47
2018-09-26T03:34:23.175Z,3.41
2018-09-26T03:35:27.644Z,3.35
2018-09-26T03:36:32.244Z,3.28
2018-09-26T03:37:36.707Z,3.12
2018-09-26T03:38:41.132Z,3.02
2018-09-26T03:39:45.879Z,3.08
2018-09-26T03:40:50.354Z,3.15
2018-09-26T03:41:54.741Z,3.26
2018-09-26T03:42:59.165Z,3.26
2018-09-26T03:44:03.606Z,3.27
2018-09-26T03:45:08.261Z,3.30
2018-09-26T03:46:14.042Z,3.33
2018-09-26T03:47:18.485Z,3.35
2018-09-26T03:48:23.681Z,3.37
2018-09-26T03:49:28.162Z,3.42
2018-09-26T03:50:32.652Z,3.46
2018-09-26T03:51:37.147Z,3.48
2018-09-26T03:52:41.881Z,3.52
2018-09-26T03:53:46.475Z,3.55
2018-09-26T03:54:50.931Z,3.58
2018-09-26T03:55:55.376Z,3.58
2018-09-26T03:56:59.853Z,3.35
2018-09-26T03:58:04.374Z,3.33
2018-09-26T03:59:09.093Z,3.23
2018-09-26T04:00:13.538Z,3.20
2018-09-26T04:01:17.980Z,3.11
2018-09-26T04:02:22.409Z,3.04
2018-09-26T04:03:26.809Z,3.04
2018-09-26T04:04:31.262Z,3.08
2018-09-26T04:05:35.961Z,3.11
2018-09-26T04:06:40.407Z,3.14
2018-09-26T04:07:44.834Z,3.20
2018-09-26T04:08:49.270Z,3.22
2018-09-26T04:09:53.692Z,3.24
2018-09-26T04:10:58.122Z,3.28
2018-09-26T04:12:02.803Z,3.34
2018-09-26T04:13:07.262Z,3.25
2018-09-26T04:14:11.729Z,3.21
2018-09-26T04:15:16.287Z,3.04
2018-09-26T04:16:21.164Z,3.01
2018-09-26T04:17:25.578Z,2.94
2018-09-26T04:18:30.473Z,2.89
2018-09-26T04:19:34.997Z,2.92
2018-09-26T04:20:39.425Z,2.93
2018-09-26T04:21:43.817Z,2.94
2018-09-26T04:22:48.304Z,2.87
2018-09-26T04:23:52.772Z,2.84
2018-09-26T04:24:57.565Z,2.76
2018-09-26T04:26:02.285Z,2.73
2018-09-26T04:27:06.794Z,2.79
2018-09-26T04:28:11.283Z,2.83
2018-09-26T04:29:15.792Z,2.92
2018-09-26T04:30:21.388Z,3.00
2018-09-26T04:31:28.092Z,3.05
2018-09-26T04:32:34.870Z,3.05
2018-09-26T04:33:41.410Z,3.10
2018-09-26T04:34:46.899Z,3.17
2018-09-26T04:35:53.289Z,3.20
2018-09-26T04:36:58.973Z,3.24
2018-09-26T04:38:04.872Z,3.25
2018-09-26T04:39:14.413Z,3.27
2018-09-26T04:40:22.894Z,3.30
2018-09-26T04:41:31.186Z,3.32
2018-09-26T04:42:37.621Z,3.34
2018-09-26T04:43:43.187Z,3.33
2018-09-26T04:44:51.114Z,3.25
2018-09-26T04:45:56.262Z,3.25
2018-09-26T04:47:03.832Z,3.26
2018-09-26T04:48:09.202Z,3.23
2018-09-26T04:49:15.389Z,3.19
2018-09-26T04:50:25.993Z,3.14
2018-09-26T04:51:32.178Z,3.08
2018-09-26T04:52:37.709Z,3.03
2018-09-26T04:53:47.804Z,3.05
2018-09-26T04:54:54.193Z,3.06
2018-09-26T04:56:01.098Z,3.08
2018-09-26T04:57:08.672Z,3.12
2018-09-26T04:58:14.763Z,3.14
2018-09-26T04:59:21.326Z,3.20
2018-09-26T05:00:27.211Z,3.18
2018-09-26T05:01:33.080Z,3.19
2018-09-26T05:02:38.263Z,3.21
2018-09-26T05:03:44.596Z,3.23
2018-09-26T05:04:49.820Z,3.28
2018-09-26T05:05:55.542Z,3.29
2018-09-26T05:07:00.729Z,3.25
2018-09-26T05:08:06.308Z,3.03
2018-09-26T05:09:12.421Z,2.87
2018-09-26T05:10:17.675Z,2.76
2018-09-26T05:11:23.119Z,2.72
2018-09-26T05:12:28.785Z,2.69
2018-09-26T05:13:33.862Z,2.65
2018-09-26T05:14:39.080Z,2.59
2018-09-26T05:15:44.976Z,2.52
2018-09-26T05:16:50.219Z,2.44
2018-09-26T05:17:55.403Z,2.46
2018-09-26T05:19:00.084Z,2.56
2018-09-26T05:20:04.665Z,2.52
2018-09-26T05:21:10.043Z,2.59
2018-09-26T05:22:15.800Z,2.61
2018-09-26T05:23:20.226Z,2.55
2018-09-26T05:24:24.641Z,2.59
2018-09-26T05:25:29.431Z,2.58
2018-09-26T05:26:34.771Z,2.48
2018-09-26T05:27:39.278Z,2.34
2018-09-26T05:28:44.642Z,2.25
2018-09-26T05:29:49.149Z,2.28
2018-09-26T05:44:22.650Z,3.01
2018-09-26T05:45:27.954Z,2.96
2018-09-26T05:46:32.545Z,2.96
2018-09-26T05:47:36.974Z,3.01
2018-09-26T05:48:41.384Z,3.01
2018-09-26T05:49:46.315Z,2.95
2018-09-26T05:50:50.786Z,2.87
2018-09-26T05:51:56.100Z,2.78
2018-09-26T05:53:01.118Z,2.68
2018-09-26T05:54:05.582Z,2.60
2018-09-26T05:55:11.658Z,2.54
2018-09-26T05:56:17.112Z,2.57
2018-09-26T05:57:21.914Z,2.56
2018-09-26T05:58:27.405Z,2.63
2018-09-26T05:59:33.020Z,2.65
2018-09-26T06:00:38.122Z,2.67
2018-09-26T06:01:43.694Z,2.71
2018-09-26T06:02:50.415Z,2.80
2018-09-26T06:03:54.979Z,2.90
2018-09-26T06:05:00.069Z,2.95
2018-09-26T06:06:05.969Z,2.91
2018-09-26T06:07:11.713Z,2.82
2018-09-26T06:08:17.472Z,2.75
2018-09-26T06:09:23.746Z,2.73
2018-09-26T06:10:28.333Z,2.83
2018-09-26T06:11:32.930Z,2.93
2018-09-26T06:12:37.371Z,3.04
2018-09-26T06:13:41.971Z,3.17
2018-09-26T06:14:47.163Z,3.31
2018-09-26T06:15:53.059Z,3.44
2018-09-26T06:16:57.490Z,3.51
2018-09-26T06:18:01.959Z,3.58
2018-09-26T06:19:06.570Z,3.65
2018-09-26T06:20:11.129Z,3.75
2018-09-26T06:21:15.673Z,3.82
2018-09-26T06:22:20.783Z,3.91
2018-09-26T06:23:25.529Z,3.79
2018-09-26T06:24:30.266Z,3.65
2018-09-26T06:25:35.185Z,3.60
2018-09-26T06:26:39.638Z,3.64
2018-09-26T06:27:45.133Z,3.72
2018-09-26T06:28:50.146Z,3.88
2018-09-26T06:29:54.777Z,4.03
2018-09-26T06:30:59.405Z,4.15
2018-09-26T06:32:03.923Z,4.12
2018-09-26T06:33:08.977Z,4.11
2018-09-26T06:34:13.518Z,4.15
2018-09-26T06:35:18.968Z,4.21
2018-09-26T06:36:23.770Z,4.25
2018-09-26T06:37:29.125Z,4.24
2018-09-26T06:38:34.307Z,4.26
2018-09-26T06:39:39.084Z,4.45
2018-09-26T06:40:43.500Z,4.67
2018-09-26T06:41:48.320Z,5.02
2018-09-26T06:42:52.739Z,5.40
2018-09-26T06:43:57.198Z,5.55
2018-09-26T06:45:02.337Z,5.70
2018-09-26T06:46:07.409Z,5.90
2018-09-26T06:47:11.871Z,6.03
2018-09-26T06:48:16.974Z,6.20
2018-09-26T06:49:21.695Z,6.56
2018-09-26T06:50:26.321Z,6.89
2018-09-26T06:51:30.780Z,7.08
2018-09-26T06:52:35.192Z,6.97
2018-09-26T06:53:39.605Z,6.90
2018-09-26T06:54:44.788Z,6.97
2018-09-26T06:55:50.605Z,7.29
2018-09-26T06:56:55.458Z,7.65
2018-09-26T06:58:01.211Z,7.98
2018-09-26T06:59:05.733Z,8.49
2018-09-26T07:00:11.261Z,9.03
2018-09-26T07:01:15.953Z,9.87
2018-09-26T07:02:21.047Z,10.71
2018-09-26T07:03:25.680Z,11.14
2018-09-26T07:04:30.262Z,11.85
2018-09-26T07:05:36.565Z,11.51
2018-09-26T07:07:50.533Z,11.18
2018-09-26T07:08:56.507Z,11.31
2018-09-26T07:10:01.049Z,11.34
2018-09-26T07:11:05.472Z,11.42
2018-09-26T07:12:09.940Z,11.60
2018-09-26T07:13:14.889Z,11.74
2018-09-26T07:14:20.684Z,12.14
2018-09-26T07:15:26.236Z,12.58
2018-09-26T07:16:30.691Z,12.74
2018-09-26T07:17:35.713Z,13.06
2018-09-26T07:18:40.160Z,13.75
2018-09-26T07:19:44.607Z,13.99
2018-09-26T07:20:49.130Z,13.00
2018-09-26T07:21:54.876Z,13.20
2018-09-26T07:22:59.404Z,13.92
2018-09-26T07:24:05.437Z,14.76
2018-09-26T07:25:09.959Z,15.44
2018-09-26T07:26:15.386Z,15.87
2018-09-26T07:27:19.902Z,16.02
2018-09-26T07:28:26.320Z,15.69
2018-09-26T07:29:32.335Z,14.76
2018-09-26T07:30:36.844Z,13.90
2018-09-26T07:31:41.686Z,14.12
2018-09-26T07:32:46.224Z,14.60
2018-09-26T07:33:50.775Z,14.56
2018-09-26T07:34:55.219Z,14.56
2018-09-26T07:36:00.977Z,14.41
2018-09-26T07:37:05.715Z,14.03
2018-09-26T07:38:10.203Z,13.67
2018-09-26T07:39:16.174Z,13.83
2018-09-26T07:40:21.126Z,13.83
2018-09-26T07:41:25.758Z,13.68
2018-09-26T07:42:30.579Z,13.66
2018-09-26T07:43:35.763Z,14.17
2018-09-26T07:44:40.305Z,14.22
2018-09-26T07:45:45.168Z,14.56
2018-09-26T07:46:52.382Z,15.03
2018-09-26T07:47:56.859Z,14.23
2018-09-26T07:49:01.809Z,14.30
2018-09-26T07:50:06.441Z,14.30
2018-09-26T07:51:11.853Z,14.19
2018-09-26T07:52:17.946Z,14.39
2018-09-26T07:53:22.517Z,14.55
2018-09-26T07:54:26.957Z,14.78
2018-09-26T07:55:31.710Z,15.10
2018-09-26T07:56:36.520Z,15.35
2018-09-26T07:57:42.235Z,15.42
2018-09-26T07:58:49.321Z,15.25
2018-09-26T07:59:55.697Z,15.44
2018-09-26T08:01:00.606Z,15.22
2018-09-26T08:02:05.535Z,15.59
2018-09-26T08:03:12.643Z,16.20
2018-09-26T08:04:17.225Z,16.60
2018-09-26T08:05:24.709Z,17.21
2018-09-26T08:06:31.498Z,17.96
2018-09-26T08:07:37.315Z,18.54
2018-09-26T08:08:44.244Z,18.53
2018-09-26T08:09:49.437Z,18.28
2018-09-26T08:10:54.220Z,17.49
2018-09-26T08:11:59.674Z,17.46
2018-09-26T08:13:04.398Z,18.19
2018-09-26T08:14:09.851Z,18.59
2018-09-26T08:15:16.152Z,18.54
2018-09-26T08:16:22.702Z,18.12
2018-09-26T08:17:29.481Z,17.85
2018-09-26T08:18:34.245Z,17.98
2018-09-26T08:19:39.729Z,18.32
2018-09-26T08:20:46.591Z,18.88
2018-09-26T08:21:52.334Z,18.72
2018-09-26T08:22:57.268Z,18.17
2018-09-26T08:24:01.829Z,17.24
2018-09-26T08:25:06.997Z,17.43
2018-09-26T08:26:11.593Z,18.21
2018-09-26T08:27:16.843Z,18.50
2018-09-26T08:28:21.681Z,18.22
2018-09-26T08:29:29.246Z,18.72
2018-09-26T08:30:33.764Z,19.67
2018-09-26T08:31:39.307Z,20.60
2018-09-26T08:32:43.892Z,21.20
2018-09-26T08:33:48.437Z,21.11
2018-09-26T08:34:53.444Z,21.38
2018-09-26T08:35:58.123Z,18.33
2018-09-26T08:37:02.574Z,17.80
2018-09-26T08:38:07.102Z,18.33
2018-09-26T08:39:15.324Z,18.96
2018-09-26T08:40:21.042Z,19.52
2018-09-26T08:41:26.079Z,19.73
2018-09-26T08:42:35.583Z,19.61
2018-09-26T08:43:40.282Z,18.76
2018-09-26T08:44:44.758Z,18.46
2018-09-26T08:45:49.273Z,18.24
2018-09-26T08:46:53.771Z,18.30
2018-09-26T08:47:58.589Z,18.31
2018-09-26T08:49:04.831Z,18.60
2018-09-26T08:50:09.987Z,18.80
2018-09-26T08:51:14.980Z,19.20
2018-09-26T08:52:19.578Z,19.96
2018-09-26T08:53:24.005Z,20.87
2018-09-26T08:54:28.994Z,21.04
2018-09-26T08:55:33.592Z,21.30
2018-09-26T08:56:38.153Z,21.81
2018-09-26T08:57:42.642Z,21.17
2018-09-26T08:58:47.159Z,20.63
2018-09-26T08:59:51.771Z,20.39
2018-09-26T09:00:56.885Z,20.91
2018-09-26T09:02:04.792Z,21.45
2018-09-26T09:03:09.231Z,21.04
2018-09-26T09:04:13.860Z,18.73
2018-09-26T09:05:20.676Z,18.83
2018-09-26T09:06:29.322Z,19.98
2018-09-26T09:07:34.782Z,19.07
2018-09-26T09:08:39.252Z,18.72
2018-09-26T09:09:43.758Z,18.79
2018-09-26T09:10:48.790Z,18.19
2018-09-26T09:11:54.140Z,17.46
2018-09-26T09:12:58.953Z,17.77
2018-09-26T09:14:04.459Z,18.36
2018-09-26T09:15:09.759Z,18.70
2018-09-26T09:16:14.306Z,18.73
2018-09-26T09:17:18.785Z,19.38
2018-09-26T09:18:23.259Z,20.32
2018-09-26T09:19:28.849Z,20.60
2018-09-26T09:20:33.692Z,20.62
2018-09-26T09:21:39.823Z,20.00
2018-09-26T09:22:44.684Z,19.27
2018-09-26T09:23:50.031Z,18.50
2018-09-26T09:24:55.456Z,18.84
2018-09-26T09:26:01.006Z,19.06
2018-09-26T09:27:05.986Z,18.68
2018-09-26T09:28:11.172Z,18.26
2018-09-26T09:29:17.431Z,18.00
2018-09-26T09:30:22.699Z,17.33
2018-09-26T09:31:27.384Z,16.92
2018-09-26T09:32:31.928Z,17.02
2018-09-26T09:33:38.846Z,17.15
2018-09-26T09:34:45.015Z,17.18
2018-09-26T09:35:50.437Z,17.17
2018-09-26T09:37:01.705Z,17.35
2018-09-26T09:38:08.137Z,17.50
2018-09-26T09:39:12.583Z,17.13
2018-09-26T09:40:17.231Z,16.66
2018-09-26T09:41:22.594Z,16.67
2018-09-26T09:42:27.195Z,17.04
2018-09-26T09:43:31.673Z,17.45
2018-09-26T09:44:36.108Z,18.05
2018-09-26T09:45:41.306Z,18.12
2018-09-26T09:46:46.822Z,17.30
2018-09-26T09:47:51.352Z,17.54
2018-09-26T09:48:56.553Z,18.42
2018-09-26T09:50:01.082Z,19.27
2018-09-26T09:51:06.333Z,19.31
2018-09-26T09:52:11.005Z,20.04
2018-09-26T09:53:19.343Z,20.62
2018-09-26T09:54:26.932Z,20.10
2018-09-26T09:55:33.778Z,20.19
2018-09-26T09:56:38.249Z,20.71
2018-09-26T09:57:42.748Z,20.61
2018-09-26T09:58:47.234Z,19.77
2018-09-26T09:59:53.387Z,19.15
2018-09-26T10:01:03.078Z,18.00
2018-09-26T10:02:07.637Z,17.81
2018-09-26T10:03:13.778Z,17.40
2018-09-26T10:04:20.560Z,17.29
2018-09-26T10:05:27.311Z,17.49
2018-09-26T10:06:34.299Z,17.02
2018-09-26T10:07:42.262Z,16.69
2018-09-26T10:08:46.815Z,16.71
2018-09-26T10:09:51.436Z,17.09
2018-09-26T10:10:56.627Z,16.79
2018-09-26T10:12:03.308Z,16.56
2018-09-26T10:13:09.010Z,16.24
2018-09-26T10:14:13.679Z,16.58
2018-09-26T10:15:18.276Z,16.80
2018-09-26T10:16:23.444Z,16.96
2018-09-26T10:17:28.126Z,17.21
2018-09-26T10:18:35.750Z,16.73
2018-09-26T10:19:41.170Z,16.32
2018-09-26T10:20:46.883Z,16.31
2018-09-26T10:21:53.381Z,16.74
2018-09-26T10:22:58.942Z,17.19
2018-09-26T10:24:04.314Z,17.19
2018-09-26T10:25:09.148Z,16.36
2018-09-26T10:26:13.935Z,16.13
2018-09-26T10:27:19.055Z,15.69
2018-09-26T10:28:25.233Z,15.40
2018-09-26T10:29:29.685Z,15.20
2018-09-26T10:30:40.607Z,15.34
2018-09-26T10:43:33.279Z,15.37
2018-09-26T10:44:39.092Z,15.31
2018-09-26T10:45:43.600Z,15.34
2018-09-26T10:46:48.085Z,15.57
2018-09-26T10:47:52.877Z,15.70
2018-09-26T10:48:59.426Z,16.07
2018-09-26T10:50:03.983Z,15.97
2018-09-26T10:51:08.672Z,15.89
2018-09-26T10:52:13.409Z,15.89
2018-09-26T10:53:17.907Z,15.76
2018-09-26T10:54:22.326Z,15.69
2018-09-26T10:55:29.283Z,15.50
2018-09-26T10:56:34.809Z,15.55
2018-09-26T10:57:39.463Z,15.68
2018-09-26T10:58:45.637Z,16.07
2018-09-26T10:59:50.507Z,16.46
2018-09-26T11:00:56.658Z,16.64
2018-09-26T11:02:01.713Z,16.46
2018-09-26T11:03:06.141Z,16.47
2018-09-26T11:04:10.822Z,16.80
2018-09-26T11:05:18.144Z,17.09
2018-09-26T11:06:22.605Z,17.54
2018-09-26T11:07:27.429Z,17.57
2018-09-26T11:08:32.487Z,17.37
2018-09-26T11:09:38.525Z,17.56
2018-09-26T11:10:43.024Z,17.58
2018-09-26T11:11:48.835Z,17.48
2018-09-26T11:12:53.248Z,17.56
2018-09-26T11:13:57.836Z,17.27
2018-09-26T11:15:05.288Z,16.89
2018-09-26T11:16:11.707Z,16.93
2018-09-26T11:17:16.478Z,17.48
2018-09-26T11:18:21.671Z,17.15
2018-09-26T11:19:26.626Z,17.01
2018-09-26T11:20:31.355Z,16.96
2018-09-26T11:21:36.945Z,16.71
2018-09-26T11:22:42.715Z,16.79
2018-09-26T11:23:47.312Z,16.62
2018-09-26T11:24:51.799Z,16.45
2018-09-26T11:25:56.238Z,16.47
2018-09-26T11:27:01.524Z,16.60
2018-09-26T11:28:07.652Z,16.37
2018-09-26T11:29:15.531Z,16.43
2018-09-26T11:30:20.091Z,16.72
2018-09-26T11:31:25.213Z,16.99
2018-09-26T11:32:29.724Z,16.94
2018-09-26T11:33:35.262Z,17.14
2018-09-26T11:34:40.057Z,17.09
2018-09-26T11:35:45.049Z,17.01
2018-09-26T11:36:49.740Z,16.95
2018-09-26T11:37:58.203Z,16.49
2018-09-26T11:39:03.769Z,16.51
2018-09-26T11:40:09.257Z,16.74
2018-09-26T11:41:15.067Z,17.06
2018-09-26T11:42:19.606Z,17.11
2018-09-26T11:43:25.986Z,17.02
2018-09-26T11:44:30.528Z,17.07
2018-09-26T11:45:35.031Z,17.15
2018-09-26T11:46:39.462Z,17.30
2018-09-26T11:47:44.271Z,17.05
2018-09-26T11:48:48.740Z,16.86
2018-09-26T11:49:53.215Z,16.64
2018-09-26T11:50:59.217Z,16.83
2018-09-26T11:52:03.763Z,17.06
2018-09-26T11:53:08.239Z,17.38
2018-09-26T11:54:14.656Z,17.65
2018-09-26T11:55:19.412Z,17.69
2018-09-26T11:56:25.376Z,17.90
2018-09-26T11:57:30.186Z,18.01
2018-09-26T11:58:34.693Z,18.08
2018-09-26T11:59:40.510Z,18.17
2018-09-26T12:00:45.541Z,17.64
2018-09-26T12:01:54.510Z,16.94
2018-09-26T12:02:59.221Z,16.50
2018-09-26T12:04:05.296Z,16.63
2018-09-26T12:05:10.277Z,16.81
2018-09-26T12:06:15.430Z,17.27
2018-09-26T12:07:24.713Z,17.53
2018-09-26T12:08:33.410Z,17.81
2018-09-26T12:09:39.931Z,17.87
2018-09-26T12:10:45.270Z,18.23
2018-09-26T12:11:50.354Z,18.38
2018-09-26T12:12:56.326Z,18.46
2018-09-26T12:14:01.720Z,17.87
2018-09-26T12:15:07.428Z,17.15
2018-09-26T12:16:12.774Z,16.99
2018-09-26T12:17:17.248Z,17.33
2018-09-26T12:19:37.766Z,17.32
2018-09-26T12:20:43.854Z,17.62
2018-09-26T12:21:48.428Z,17.88
2018-09-26T12:22:53.985Z,18.05
2018-09-26T12:23:59.180Z,18.03
2018-09-26T12:25:04.396Z,18.10
2018-09-26T12:26:09.936Z,18.49
2018-09-26T12:27:14.433Z,18.86
2018-09-26T12:28:19.658Z,19.08
2018-09-26T12:29:24.341Z,18.81
2018-09-26T12:30:30.261Z,18.21
2018-09-26T12:31:36.510Z,17.99
2018-09-26T12:32:41.073Z,18.33
2018-09-26T12:33:46.433Z,18.43
2018-09-26T12:34:51.146Z,18.68
2018-09-26T12:35:58.640Z,18.92
2018-09-26T12:37:03.246Z,19.18
2018-09-26T12:38:07.820Z,19.24
2018-09-26T12:39:12.515Z,19.37
2018-09-26T12:40:17.015Z,19.24
2018-09-26T12:41:22.817Z,19.52
2018-09-26T12:42:28.410Z,19.49
2018-09-26T12:43:34.621Z,19.40
2018-09-26T12:44:42.359Z,19.53
2018-09-26T12:45:50.600Z,19.61
2018-09-26T12:46:58.021Z,19.81
2018-09-26T12:48:04.054Z,19.24
2018-09-26T12:49:08.526Z,19.09
2018-09-26T12:50:13.139Z,18.68
2018-09-26T12:51:17.539Z,18.72
2018-09-26T12:52:23.102Z,19.02
2018-09-26T12:53:27.624Z,19.52
2018-09-26T12:54:34.676Z,19.57
2018-09-26T12:55:41.331Z,19.86
2018-09-26T12:56:48.774Z,20.41
2018-09-26T12:57:55.441Z,20.85
2018-09-26T12:59:01.859Z,20.19
2018-09-26T13:00:07.871Z,20.26
2018-09-26T13:01:14.319Z,20.15
2018-09-26T13:02:19.102Z,20.08
2018-09-26T13:03:23.546Z,20.39
2018-09-26T13:04:28.257Z,20.35
2018-09-26T13:05:33.647Z,19.78
2018-09-26T13:06:40.921Z,18.46
2018-09-26T13:07:46.505Z,17.88
2018-09-26T13:08:51.365Z,18.02
2018-09-26T13:09:55.863Z,18.21
2018-09-26T13:11:01.692Z,18.38
2018-09-26T13:12:07.403Z,18.25
2018-09-26T13:13:12.972Z,18.49
2018-09-26T13:14:18.081Z,18.31
2018-09-26T13:15:23.466Z,17.93
2018-09-26T13:16:27.948Z,17.81
2018-09-26T13:17:32.414Z,17.52
2018-09-26T13:18:36.821Z,17.81
2018-09-26T13:19:41.356Z,17.48
2018-09-26T13:20:47.233Z,17.32
2018-09-26T13:21:53.653Z,17.81
2018-09-26T13:22:58.922Z,18.64
2018-09-26T13:24:04.672Z,18.96
2018-09-26T13:25:09.172Z,19.50
2018-09-26T13:26:14.664Z,18.77
2018-09-26T13:27:20.513Z,18.74
2018-09-26T13:28:25.036Z,18.90
2018-09-26T13:29:29.479Z,18.67
2018-09-26T13:30:33.937Z,18.87
2018-09-26T13:31:38.865Z,19.92
2018-09-26T13:32:44.377Z,20.49
2018-09-26T13:33:49.335Z,20.90
2018-09-26T13:34:54.571Z,21.10
2018-09-26T13:35:59.028Z,20.85
2018-09-26T13:37:10.863Z,20.91
2018-09-26T13:38:15.557Z,21.33
2018-09-26T13:39:21.257Z,21.06
2018-09-26T13:40:28.012Z,21.61
2018-09-26T13:41:34.274Z,21.81
2018-09-26T13:42:43.458Z,21.88
2018-09-26T13:43:47.892Z,21.47
2018-09-26T13:44:53.462Z,21.48
2018-09-26T13:45:59.742Z,21.83
2018-09-26T13:47:06.077Z,22.54
2018-09-26T13:48:13.356Z,23.31
2018-09-26T13:49:18.390Z,23.26
2018-09-26T13:50:22.908Z,23.15
2018-09-26T13:51:28.867Z,23.32
2018-09-26T13:52:34.817Z,23.59
2018-09-26T13:53:40.164Z,23.19
2018-09-26T13:54:45.453Z,22.48
2018-09-26T13:55:50.676Z,22.97
2018-09-26T13:56:57.271Z,23.85
2018-09-26T13:58:02.525Z,23.68
2018-09-26T13:59:10.436Z,22.55
2018-09-26T14:00:18.562Z,22.31
2018-09-26T14:01:26.412Z,22.96
2018-09-26T14:02:32.782Z,23.38
2018-09-26T14:03:37.333Z,22.89
2018-09-26T14:04:42.145Z,22.42
2018-09-26T14:05:50.103Z,22.01
2018-09-26T14:06:56.874Z,22.70
2018-09-26T14:08:03.948Z,22.84
2018-09-26T14:09:15.050Z,23.50
2018-09-26T14:10:19.611Z,24.53
2018-09-26T14:11:28.612Z,24.49
2018-09-26T14:12:34.295Z,23.79
2018-09-26T14:13:42.383Z,22.89
2018-09-26T14:14:50.007Z,22.97
2018-09-26T14:15:57.398Z,23.28
2018-09-26T14:17:07.391Z,24.06
2018-09-26T14:18:15.425Z,23.55
2018-09-26T14:19:21.464Z,23.19
2018-09-26T14:20:26.092Z,23.30
2018-09-26T14:21:31.264Z,23.04
2018-09-26T14:22:36.515Z,23.06
2018-09-26T14:23:41.153Z,23.52
2018-09-26T14:24:46.049Z,23.27
2018-09-26T14:25:51.460Z,23.43
2018-09-26T14:26:56.142Z,23.88
2018-09-26T14:28:01.498Z,24.40
2018-09-26T14:29:07.433Z,24.15
2018-09-26T14:30:12.963Z,24.19
2018-09-26T14:31:19.194Z,24.46
2018-09-26T14:32:24.691Z,45.34
2018-09-26T14:33:30.224Z,25.62
2018-09-26T14:34:35.749Z,27.17
2018-09-26T14:35:45.255Z,24.09
2018-09-26T14:36:50.019Z,24.57
2018-09-26T14:37:55.441Z,24.61
2018-09-26T14:39:00.312Z,23.96
2018-09-26T14:40:05.221Z,23.77
2018-09-26T14:41:11.415Z,24.86